Airfield :







YOU CAN JOIN US ON...

 
LOGIN :

Register | Disclaimer

   EN    FR    IT 

 









Legend :    VFR   Marginal VFR   IFR   Intensive IFR   Very Intensive IFR
Visi :
Ceiling :
>= 8 km
>= 3000ft
5 to 8 km
1000 to 3000 ft
1500m to 5 km
500 to 1000 ft
800 to 1500m
200 to 500 ft
< 800m
< 200 ft
Symbols :   Thunderstorms  Fog  Heavy snow  Heavy precipitations  Wind > 20 kt






- Airport Elevation : 48 ft
- IATA code : REK


BIRK - Reykjavik

CURRENT METAR :
  • 090700Z 12010KT 9000 -RA FEW018 OVC035 12/10 Q0991

EXPIRED METARs :
  • 090600Z 12012KT 9000 -RA SCT017 OVC050 12/10 Q0992
  • 090500Z 12019KT 9999 FEW026 BKN041 OVC055 12/09 Q0992

TAF TAF BIRK
Valid from the 09 at 06:00 until the 10 at 06:00 UTC


090402Z 0906/1006 13018G28KT 7000 RADZ BKN018 TX13/0908Z TN10/1006Z
TEMPO 0909/0918 BKN008
BECMG 0910/0912 19012KT 9999 -RA
PROB40
TEMPO 0920/1002 22015G25KT 5000 RADZ BR OVC006



MET'MAP, your aeronautical weather chart ! - Copyright ORBIFLY December 2007 - Disclaimer

ORBIFLY MET'MAP TEAM :

Programming & Development : Alexandra Zaïnal
Original concept : Baudouin d'Aumeries
Technical & hardware support : Manuel Goepfert
Assistance : Marc-Olivier Méhu




SOURCES & CREDITS :

   NOAA